Closter, New Jersey
Current Conditions -  °F | °C
As of 10:51 PM on Tuesday 21 Oct 2014 (Local Time) from KTEB Reporting Station
Broken Clouds Broken Clouds  
Wind Chill: 57°   Ceiling: 11000
Heat Index: 57°   Visibility: 10mi
Dew Point: 52°   Wind: 5mph
Humidity: 83%   Direction: 30°NNE
Pressure: 29.9"   Gusts: NA
Location:  40.97°N, 73.96°W
Report Text: KTEB 220251Z 03004KT 10SM SCT024 SCT090 BKN110 14/11 A2990 RMK AO2 RAE44 SLP126 P0000 60011 T01390111 51012
Loading
Personal Weather Stations






























Interactive Weather Map
Tropical Storm Tracking
New forecast layout! Learn more

10-Day Weather Forecast

Advertisements
Track Severe Weather on mobile